sensor_id;sensor_type;location;lat;lon;timestamp;pressure;altitude;pressure_sealevel;temperature;humidity
76728;BME280;65652;53.132;18.026;2023-07-31T00:01:50;100521.81;;;18.30;66.56
76728;BME280;65652;53.132;18.026;2023-07-31T00:04:16;100522.30;;;18.27;66.70
76728;BME280;65652;53.132;18.026;2023-07-31T00:06:42;100525.16;;;18.24;66.73
76728;BME280;65652;53.132;18.026;2023-07-31T00:09:09;100522.53;;;18.22;66.74
76728;BME280;65652;53.132;18.026;2023-07-31T00:11:35;100524.20;;;18.20;66.94
76728;BME280;65652;53.132;18.026;2023-07-31T00:14:01;100522.71;;;18.20;66.78
76728;BME280;65652;53.132;18.026;2023-07-31T00:16:27;100527.42;;;18.20;66.87
76728;BME280;65652;53.132;18.026;2023-07-31T00:18:54;100523.78;;;18.19;67.26
76728;BME280;65652;53.132;18.026;2023-07-31T00:21:20;100518.04;;;18.17;67.37
76728;BME280;65652;53.132;18.026;2023-07-31T00:23:46;100524.40;;;18.16;67.40
76728;BME280;65652;53.132;18.026;2023-07-31T00:26:12;100517.30;;;18.11;67.51
76728;BME280;65652;53.132;18.026;2023-07-31T00:28:38;100512.59;;;18.05;67.77
76728;BME280;65652;53.132;18.026;2023-07-31T00:31:04;100515.30;;;18.01;67.90
76728;BME280;65652;53.132;18.026;2023-07-31T00:33:31;100511.92;;;17.98;67.98
76728;BME280;65652;53.132;18.026;2023-07-31T00:35:57;100520.58;;;17.98;67.92
76728;BME280;65652;53.132;18.026;2023-07-31T00:38:25;100517.54;;;17.99;68.15
76728;BME280;65652;53.132;18.026;2023-07-31T00:40:51;100520.83;;;17.98;68.02
76728;BME280;65652;53.132;18.026;2023-07-31T00:43:18;100522.35;;;17.98;68.12
76728;BME280;65652;53.132;18.026;2023-07-31T00:45:44;100521.50;;;17.99;68.30
76728;BME280;65652;53.132;18.026;2023-07-31T00:48:11;100519.44;;;17.98;68.44
76728;BME280;65652;53.132;18.026;2023-07-31T00:50:37;100524.70;;;17.97;68.63
76728;BME280;65652;53.132;18.026;2023-07-31T00:53:04;100525.50;;;17.97;68.74
76728;BME280;65652;53.132;18.026;2023-07-31T00:55:33;100526.60;;;17.95;68.90
76728;BME280;65652;53.132;18.026;2023-07-31T00:57:59;100533.41;;;17.93;69.10
76728;BME280;65652;53.132;18.026;2023-07-31T01:00:26;100534.01;;;17.91;69.30
76728;BME280;65652;53.132;18.026;2023-07-31T01:02:52;100535.20;;;17.89;69.53
76728;BME280;65652;53.132;18.026;2023-07-31T01:08:18;100541.17;;;17.86;69.97
76728;BME280;65652;53.132;18.026;2023-07-31T01:10:51;100542.42;;;17.81;70.11
76728;BME280;65652;53.132;18.026;2023-07-31T01:13:20;100540.68;;;17.81;70.26
76728;BME280;65652;53.132;18.026;2023-07-31T01:15:47;100542.86;;;17.77;70.23
76728;BME280;65652;53.132;18.026;2023-07-31T01:18:13;100547.77;;;17.75;70.81
76728;BME280;65652;53.132;18.026;2023-07-31T01:20:41;100544.98;;;17.70;70.57
76728;BME280;65652;53.132;18.026;2023-07-31T01:28:43;100546.15;;;17.62;71.06
76728;BME280;65652;53.132;18.026;2023-07-31T01:31:16;100542.38;;;17.58;71.13
76728;BME280;65652;53.132;18.026;2023-07-31T01:33:42;100546.15;;;17.55;71.46
76728;BME280;65652;53.132;18.026;2023-07-31T01:36:09;100544.13;;;17.51;71.30
76728;BME280;65652;53.132;18.026;2023-07-31T01:38:36;100539.11;;;17.48;71.48
76728;BME280;65652;53.132;18.026;2023-07-31T01:41:02;100539.41;;;17.45;71.40
76728;BME280;65652;53.132;18.026;2023-07-31T01:43:28;100540.20;;;17.43;71.54
76728;BME280;65652;53.132;18.026;2023-07-31T01:45:55;100536.27;;;17.40;71.59
76728;BME280;65652;53.132;18.026;2023-07-31T01:48:21;100530.89;;;17.39;71.55
76728;BME280;65652;53.132;18.026;2023-07-31T01:50:47;100528.69;;;17.38;71.70
76728;BME280;65652;53.132;18.026;2023-07-31T01:53:15;100536.95;;;17.34;71.90
76728;BME280;65652;53.132;18.026;2023-07-31T01:55:41;100541.00;;;17.30;71.76
76728;BME280;65652;53.132;18.026;2023-07-31T01:58:08;100538.65;;;17.28;71.85
76728;BME280;65652;53.132;18.026;2023-07-31T02:00:34;100537.81;;;17.27;72.02
76728;BME280;65652;53.132;18.026;2023-07-31T02:03:00;100539.30;;;17.25;72.34
76728;BME280;65652;53.132;18.026;2023-07-31T02:05:27;100537.35;;;17.22;72.15
76728;BME280;65652;53.132;18.026;2023-07-31T02:07:53;100538.95;;;17.19;72.23
76728;BME280;65652;53.132;18.026;2023-07-31T02:10:19;100539.23;;;17.18;72.34
76728;BME280;65652;53.132;18.026;2023-07-31T02:12:45;100542.64;;;17.17;72.50
76728;BME280;65652;53.132;18.026;2023-07-31T02:15:11;100539.52;;;17.14;72.42
76728;BME280;65652;53.132;18.026;2023-07-31T02:17:37;100543.72;;;17.12;72.81
76728;BME280;65652;53.132;18.026;2023-07-31T02:20:04;100544.58;;;17.08;72.86
76728;BME280;65652;53.132;18.026;2023-07-31T02:22:30;100547.30;;;17.03;73.02
76728;BME280;65652;53.132;18.026;2023-07-31T02:24:56;100544.21;;;16.99;72.87
76728;BME280;65652;53.132;18.026;2023-07-31T02:27:22;100548.30;;;16.97;73.00
76728;BME280;65652;53.132;18.026;2023-07-31T02:29:53;100544.16;;;16.96;72.99
76728;BME280;65652;53.132;18.026;2023-07-31T02:32:20;100544.77;;;16.96;73.44
76728;BME280;65652;53.132;18.026;2023-07-31T02:34:46;100546.80;;;16.94;73.19
76728;BME280;65652;53.132;18.026;2023-07-31T02:37:12;100550.22;;;16.89;73.35
76728;BME280;65652;53.132;18.026;2023-07-31T02:39:39;100553.23;;;16.84;73.49
76728;BME280;65652;53.132;18.026;2023-07-31T02:42:05;100554.85;;;16.87;73.21
76728;BME280;65652;53.132;18.026;2023-07-31T02:44:31;100557.17;;;16.86;73.50
76728;BME280;65652;53.132;18.026;2023-07-31T02:46:57;100557.19;;;16.83;73.29
76728;BME280;65652;53.132;18.026;2023-07-31T02:49:23;100556.33;;;16.81;73.24
76728;BME280;65652;53.132;18.026;2023-07-31T02:51:50;100552.52;;;16.80;73.09
76728;BME280;65652;53.132;18.026;2023-07-31T02:54:16;100553.71;;;16.79;73.30
76728;BME280;65652;53.132;18.026;2023-07-31T02:56:42;100555.80;;;16.76;73.39
76728;BME280;65652;53.132;18.026;2023-07-31T02:59:08;100555.80;;;16.75;73.42
76728;BME280;65652;53.132;18.026;2023-07-31T03:01:34;100557.30;;;16.76;73.45
76728;BME280;65652;53.132;18.026;2023-07-31T03:04:00;100552.13;;;16.74;73.44
76728;BME280;65652;53.132;18.026;2023-07-31T03:06:26;100548.45;;;16.72;73.34
76728;BME280;65652;53.132;18.026;2023-07-31T03:08:53;100549.56;;;16.70;73.26
76728;BME280;65652;53.132;18.026;2023-07-31T03:11:19;100551.45;;;16.71;73.26
76728;BME280;65652;53.132;18.026;2023-07-31T03:13:45;100542.48;;;16.71;73.30
76728;BME280;65652;53.132;18.026;2023-07-31T03:16:11;100546.73;;;16.74;73.21
76728;BME280;65652;53.132;18.026;2023-07-31T03:18:37;100553.73;;;16.73;73.26
76728;BME280;65652;53.132;18.026;2023-07-31T03:21:04;100557.96;;;16.72;73.38
76728;BME280;65652;53.132;18.026;2023-07-31T03:23:30;100556.96;;;16.71;73.30
76728;BME280;65652;53.132;18.026;2023-07-31T03:26:01;100559.20;;;16.72;73.36
76728;BME280;65652;53.132;18.026;2023-07-31T03:28:29;100565.31;;;16.73;73.36
76728;BME280;65652;53.132;18.026;2023-07-31T03:30:55;100570.19;;;16.72;73.48
76728;BME280;65652;53.132;18.026;2023-07-31T03:33:22;100569.58;;;16.73;73.43
76728;BME280;65652;53.132;18.026;2023-07-31T03:35:49;100574.08;;;16.71;73.38
76728;BME280;65652;53.132;18.026;2023-07-31T03:38:15;100575.43;;;16.68;73.34
76728;BME280;65652;53.132;18.026;2023-07-31T03:40:41;100576.54;;;16.68;73.35
76728;BME280;65652;53.132;18.026;2023-07-31T03:43:07;100575.53;;;16.69;73.09
76728;BME280;65652;53.132;18.026;2023-07-31T03:45:34;100581.14;;;16.70;73.11
76728;BME280;65652;53.132;18.026;2023-07-31T03:48:00;100583.95;;;16.69;73.07
76728;BME280;65652;53.132;18.026;2023-07-31T03:50:27;100584.20;;;16.67;73.09
76728;BME280;65652;53.132;18.026;2023-07-31T03:52:53;100585.45;;;16.65;73.19
76728;BME280;65652;53.132;18.026;2023-07-31T03:55:19;100584.57;;;16.63;73.05
76728;BME280;65652;53.132;18.026;2023-07-31T03:57:45;100584.08;;;16.63;73.09
76728;BME280;65652;53.132;18.026;2023-07-31T04:00:11;100588.45;;;16.65;73.05
76728;BME280;65652;53.132;18.026;2023-07-31T04:02:41;100590.55;;;16.66;72.82
76728;BME280;65652;53.132;18.026;2023-07-31T04:05:07;100593.43;;;16.66;72.88
76728;BME280;65652;53.132;18.026;2023-07-31T04:07:33;100588.13;;;16.64;72.75
76728;BME280;65652;53.132;18.026;2023-07-31T04:10:00;100584.55;;;16.64;72.74
76728;BME280;65652;53.132;18.026;2023-07-31T04:12:26;100587.61;;;16.67;72.74
76728;BME280;65652;53.132;18.026;2023-07-31T04:14:52;100580.53;;;16.66;72.61
76728;BME280;65652;53.132;18.026;2023-07-31T04:17:18;100581.29;;;16.66;72.39
76728;BME280;65652;53.132;18.026;2023-07-31T04:19:44;100577.88;;;16.64;72.23
76728;BME280;65652;53.132;18.026;2023-07-31T04:22:10;100580.38;;;16.61;72.43
76728;BME280;65652;53.132;18.026;2023-07-31T04:24:36;100580.69;;;16.60;72.40
76728;BME280;65652;53.132;18.026;2023-07-31T04:27:03;100579.51;;;16.61;72.28
76728;BME280;65652;53.132;18.026;2023-07-31T04:29:29;100575.02;;;16.63;72.27
76728;BME280;65652;53.132;18.026;2023-07-31T04:31:55;100571.67;;;16.64;72.24
76728;BME280;65652;53.132;18.026;2023-07-31T04:34:21;100574.77;;;16.67;72.15
76728;BME280;65652;53.132;18.026;2023-07-31T04:36:47;100571.05;;;16.69;71.96
76728;BME280;65652;53.132;18.026;2023-07-31T04:39:13;100568.89;;;16.73;71.97
76728;BME280;65652;53.132;18.026;2023-07-31T04:41:40;100573.29;;;16.76;72.03
76728;BME280;65652;53.132;18.026;2023-07-31T04:44:06;100578.69;;;16.79;71.79
76728;BME280;65652;53.132;18.026;2023-07-31T04:46:32;100578.85;;;16.77;71.68
76728;BME280;65652;53.132;18.026;2023-07-31T04:48:59;100576.79;;;16.74;71.54
76728;BME280;65652;53.132;18.026;2023-07-31T04:51:25;100581.22;;;16.76;71.62
76728;BME280;65652;53.132;18.026;2023-07-31T04:53:51;100584.88;;;16.79;71.54
76728;BME280;65652;53.132;18.026;2023-07-31T04:56:17;100584.04;;;16.85;71.38
76728;BME280;65652;53.132;18.026;2023-07-31T04:58:43;100584.05;;;16.89;71.20
76728;BME280;65652;53.132;18.026;2023-07-31T05:01:09;100586.46;;;16.93;70.99
76728;BME280;65652;53.132;18.026;2023-07-31T05:03:35;100587.09;;;17.00;70.97
76728;BME280;65652;53.132;18.026;2023-07-31T05:06:01;100586.70;;;17.07;70.78
76728;BME280;65652;53.132;18.026;2023-07-31T05:08:28;100590.48;;;17.11;70.42
76728;BME280;65652;53.132;18.026;2023-07-31T05:10:54;100596.36;;;17.12;70.18
76728;BME280;65652;53.132;18.026;2023-07-31T05:13:20;100595.81;;;17.14;70.15
76728;BME280;65652;53.132;18.026;2023-07-31T05:15:46;100591.77;;;17.16;69.90
76728;BME280;65652;53.132;18.026;2023-07-31T05:18:12;100586.79;;;17.22;70.00
76728;BME280;65652;53.132;18.026;2023-07-31T05:20:38;100589.95;;;17.41;70.68
76728;BME280;65652;53.132;18.026;2023-07-31T05:23:05;100588.77;;;17.60;70.17
76728;BME280;65652;53.132;18.026;2023-07-31T05:25:31;100589.64;;;17.72;69.32
76728;BME280;65652;53.132;18.026;2023-07-31T05:27:57;100588.70;;;17.79;69.06
76728;BME280;65652;53.132;18.026;2023-07-31T05:30:23;100586.17;;;17.89;68.45
76728;BME280;65652;53.132;18.026;2023-07-31T05:32:49;100588.27;;;18.01;67.64
76728;BME280;65652;53.132;18.026;2023-07-31T05:35:16;100587.48;;;18.06;67.55
76728;BME280;65652;53.132;18.026;2023-07-31T05:37:42;100587.10;;;18.16;67.36
76728;BME280;65652;53.132;18.026;2023-07-31T05:40:08;100585.09;;;18.33;67.04
76728;BME280;65652;53.132;18.026;2023-07-31T05:42:34;100580.14;;;18.47;66.65
76728;BME280;65652;53.132;18.026;2023-07-31T05:45:02;100581.99;;;18.59;66.42
76728;BME280;65652;53.132;18.026;2023-07-31T05:47:28;100586.88;;;18.72;65.81
76728;BME280;65652;53.132;18.026;2023-07-31T05:49:54;100581.61;;;18.81;65.44
76728;BME280;65652;53.132;18.026;2023-07-31T05:52:20;100579.36;;;18.90;65.56
76728;BME280;65652;53.132;18.026;2023-07-31T05:54:46;100583.02;;;19.05;64.49
76728;BME280;65652;53.132;18.026;2023-07-31T05:57:13;100586.50;;;19.08;63.85
76728;BME280;65652;53.132;18.026;2023-07-31T05:59:39;100585.65;;;19.06;63.76
76728;BME280;65652;53.132;18.026;2023-07-31T06:02:05;100590.73;;;19.05;63.80
76728;BME280;65652;53.132;18.026;2023-07-31T06:04:32;100591.92;;;19.11;63.83
76728;BME280;65652;53.132;18.026;2023-07-31T06:06:58;100591.67;;;19.19;63.41
76728;BME280;65652;53.132;18.026;2023-07-31T06:09:24;100592.29;;;19.18;62.74
76728;BME280;65652;53.132;18.026;2023-07-31T06:11:51;100585.23;;;19.22;63.53
76728;BME280;65652;53.132;18.026;2023-07-31T06:14:17;100590.56;;;19.35;63.15
76728;BME280;65652;53.132;18.026;2023-07-31T06:16:44;100587.43;;;19.50;62.93
76728;BME280;65652;53.132;18.026;2023-07-31T06:19:10;100583.23;;;19.67;62.62
76728;BME280;65652;53.132;18.026;2023-07-31T06:21:36;100589.36;;;19.86;62.03
76728;BME280;65652;53.132;18.026;2023-07-31T06:24:04;100584.83;;;19.98;60.99
76728;BME280;65652;53.132;18.026;2023-07-31T06:26:31;100581.02;;;20.03;60.87
76728;BME280;65652;53.132;18.026;2023-07-31T06:28:57;100582.39;;;20.17;60.65
76728;BME280;65652;53.132;18.026;2023-07-31T06:31:23;100582.95;;;20.34;59.68
76728;BME280;65652;53.132;18.026;2023-07-31T06:33:51;100578.60;;;20.41;59.82
76728;BME280;65652;53.132;18.026;2023-07-31T06:36:18;100580.66;;;20.44;59.43
76728;BME280;65652;53.132;18.026;2023-07-31T06:38:44;100579.16;;;20.52;59.65
76728;BME280;65652;53.132;18.026;2023-07-31T06:41:10;100588.09;;;20.57;59.30
76728;BME280;65652;53.132;18.026;2023-07-31T06:43:37;100583.59;;;20.59;59.24
76728;BME280;65652;53.132;18.026;2023-07-31T06:46:06;100583.40;;;20.64;59.18
76728;BME280;65652;53.132;18.026;2023-07-31T06:48:33;100582.77;;;20.68;58.71
76728;BME280;65652;53.132;18.026;2023-07-31T06:51:00;100583.93;;;20.70;58.32
76728;BME280;65652;53.132;18.026;2023-07-31T06:53:26;100583.27;;;20.69;57.96
76728;BME280;65652;53.132;18.026;2023-07-31T06:55:54;100581.52;;;20.62;57.55
76728;BME280;65652;53.132;18.026;2023-07-31T06:58:20;100583.60;;;20.51;57.51
76728;BME280;65652;53.132;18.026;2023-07-31T07:00:46;100579.88;;;20.45;57.70
76728;BME280;65652;53.132;18.026;2023-07-31T07:03:17;100581.61;;;20.44;57.96
76728;BME280;65652;53.132;18.026;2023-07-31T07:05:43;100582.63;;;20.51;57.90
76728;BME280;65652;53.132;18.026;2023-07-31T07:08:10;100577.02;;;20.56;57.36
76728;BME280;65652;53.132;18.026;2023-07-31T07:10:36;100572.95;;;20.51;57.57
76728;BME280;65652;53.132;18.026;2023-07-31T07:13:02;100573.11;;;20.50;57.51
76728;BME280;65652;53.132;18.026;2023-07-31T07:15:29;100575.85;;;20.52;57.82
76728;BME280;65652;53.132;18.026;2023-07-31T07:17:55;100578.23;;;20.56;57.39
76728;BME280;65652;53.132;18.026;2023-07-31T07:20:21;100578.35;;;20.58;57.30
76728;BME280;65652;53.132;18.026;2023-07-31T07:22:47;100584.43;;;20.55;56.86
76728;BME280;65652;53.132;18.026;2023-07-31T07:25:13;100585.14;;;20.54;56.57
76728;BME280;65652;53.132;18.026;2023-07-31T07:27:39;100580.10;;;20.49;56.66
76728;BME280;65652;53.132;18.026;2023-07-31T07:30:06;100581.85;;;20.49;57.04
76728;BME280;65652;53.132;18.026;2023-07-31T07:32:32;100583.95;;;20.58;57.31
76728;BME280;65652;53.132;18.026;2023-07-31T07:34:58;100581.98;;;20.71;57.35
76728;BME280;65652;53.132;18.026;2023-07-31T07:37:25;100578.40;;;20.84;57.16
76728;BME280;65652;53.132;18.026;2023-07-31T07:39:51;100583.10;;;20.94;56.89
76728;BME280;65652;53.132;18.026;2023-07-31T07:42:18;100584.88;;;21.02;56.72
76728;BME280;65652;53.132;18.026;2023-07-31T07:44:44;100585.64;;;21.08;56.00
76728;BME280;65652;53.132;18.026;2023-07-31T07:47:10;100582.33;;;21.09;56.29
76728;BME280;65652;53.132;18.026;2023-07-31T07:49:36;100581.59;;;21.13;55.80
76728;BME280;65652;53.132;18.026;2023-07-31T07:52:03;100579.03;;;21.17;55.77
76728;BME280;65652;53.132;18.026;2023-07-31T07:54:30;100577.96;;;21.19;55.70
76728;BME280;65652;53.132;18.026;2023-07-31T07:56:56;100578.30;;;21.20;55.57
76728;BME280;65652;53.132;18.026;2023-07-31T07:59:22;100579.16;;;21.21;55.57
76728;BME280;65652;53.132;18.026;2023-07-31T08:01:48;100581.42;;;21.25;55.27
76728;BME280;65652;53.132;18.026;2023-07-31T08:04:14;100583.52;;;21.21;55.06
76728;BME280;65652;53.132;18.026;2023-07-31T08:06:40;100578.36;;;21.12;54.63
76728;BME280;65652;53.132;18.026;2023-07-31T08:09:06;100578.30;;;21.05;54.94
76728;BME280;65652;53.132;18.026;2023-07-31T08:11:34;100578.80;;;21.10;54.92
76728;BME280;65652;53.132;18.026;2023-07-31T08:14:00;100574.13;;;21.11;54.08
76728;BME280;65652;53.132;18.026;2023-07-31T08:16:27;100573.14;;;21.09;54.04
76728;BME280;65652;53.132;18.026;2023-07-31T08:18:53;100573.73;;;21.13;53.75
76728;BME280;65652;53.132;18.026;2023-07-31T08:21:19;100576.86;;;21.13;53.34
76728;BME280;65652;53.132;18.026;2023-07-31T08:23:45;100578.74;;;21.14;53.33
76728;BME280;65652;53.132;18.026;2023-07-31T08:26:18;100580.98;;;21.15;52.55
76728;BME280;65652;53.132;18.026;2023-07-31T08:28:45;100580.02;;;21.18;53.10
76728;BME280;65652;53.132;18.026;2023-07-31T08:31:11;100578.34;;;21.26;53.29
76728;BME280;65652;53.132;18.026;2023-07-31T08:33:38;100576.17;;;21.38;53.34
76728;BME280;65652;53.132;18.026;2023-07-31T08:36:04;100573.41;;;21.48;52.65
76728;BME280;65652;53.132;18.026;2023-07-31T08:38:31;100572.17;;;21.56;52.51
76728;BME280;65652;53.132;18.026;2023-07-31T08:40:57;100572.55;;;21.63;52.17
76728;BME280;65652;53.132;18.026;2023-07-31T08:43:27;100567.48;;;21.69;52.41
76728;BME280;65652;53.132;18.026;2023-07-31T08:45:54;100564.38;;;21.80;52.80
76728;BME280;65652;53.132;18.026;2023-07-31T08:48:22;100561.86;;;21.96;52.65
76728;BME280;65652;53.132;18.026;2023-07-31T08:50:50;100562.00;;;22.15;51.98
76728;BME280;65652;53.132;18.026;2023-07-31T08:53:17;100557.77;;;22.36;51.56
76728;BME280;65652;53.132;18.026;2023-07-31T08:55:44;100555.69;;;22.50;50.88
76728;BME280;65652;53.132;18.026;2023-07-31T08:58:12;100551.27;;;22.51;50.77
76728;BME280;65652;53.132;18.026;2023-07-31T09:00:39;100556.59;;;22.51;50.31
76728;BME280;65652;53.132;18.026;2023-07-31T09:03:09;100555.73;;;22.48;50.62
76728;BME280;65652;53.132;18.026;2023-07-31T09:05:41;100551.30;;;22.41;50.65
76728;BME280;65652;53.132;18.026;2023-07-31T09:08:10;100549.23;;;22.38;50.53
76728;BME280;65652;53.132;18.026;2023-07-31T09:10:44;100547.61;;;22.27;50.72
76728;BME280;65652;53.132;18.026;2023-07-31T09:13:15;100544.80;;;22.23;51.14
76728;BME280;65652;53.132;18.026;2023-07-31T09:15:44;100537.86;;;22.25;51.17
76728;BME280;65652;53.132;18.026;2023-07-31T09:18:11;100537.98;;;22.24;51.57
76728;BME280;65652;53.132;18.026;2023-07-31T09:20:37;100532.68;;;22.24;51.43
76728;BME280;65652;53.132;18.026;2023-07-31T09:23:11;100527.58;;;22.22;51.58
76728;BME280;65652;53.132;18.026;2023-07-31T09:25:39;100528.60;;;22.26;51.71
76728;BME280;65652;53.132;18.026;2023-07-31T09:28:07;100523.52;;;22.30;51.53
76728;BME280;65652;53.132;18.026;2023-07-31T09:30:51;100523.31;;;22.25;51.46
76728;BME280;65652;53.132;18.026;2023-07-31T09:33:19;100522.77;;;22.11;51.56
76728;BME280;65652;53.132;18.026;2023-07-31T09:35:46;100521.92;;;21.98;52.08
76728;BME280;65652;53.132;18.026;2023-07-31T09:38:15;100513.92;;;21.97;52.19
76728;BME280;65652;53.132;18.026;2023-07-31T09:40:46;100516.77;;;22.04;52.02
76728;BME280;65652;53.132;18.026;2023-07-31T09:43:17;100513.42;;;22.17;52.02
76728;BME280;65652;53.132;18.026;2023-07-31T09:45:44;100509.98;;;22.28;51.97
76728;BME280;65652;53.132;18.026;2023-07-31T09:48:12;100503.58;;;22.32;51.90
76728;BME280;65652;53.132;18.026;2023-07-31T09:50:42;100503.98;;;22.32;51.98
76728;BME280;65652;53.132;18.026;2023-07-31T09:53:09;100498.48;;;22.27;51.81
76728;BME280;65652;53.132;18.026;2023-07-31T09:55:37;100503.70;;;22.21;51.92
76728;BME280;65652;53.132;18.026;2023-07-31T09:58:05;100504.09;;;22.08;51.66
76728;BME280;65652;53.132;18.026;2023-07-31T10:00:32;100508.20;;;21.96;52.29
76728;BME280;65652;53.132;18.026;2023-07-31T10:03:00;100514.88;;;21.79;52.13
76728;BME280;65652;53.132;18.026;2023-07-31T10:05:42;100522.39;;;21.52;53.25
76728;BME280;65652;53.132;18.026;2023-07-31T10:08:09;100533.73;;;21.21;55.04
76728;BME280;65652;53.132;18.026;2023-07-31T10:10:36;100525.70;;;20.96;57.42
76728;BME280;65652;53.132;18.026;2023-07-31T10:13:04;100511.49;;;20.77;58.77
76728;BME280;65652;53.132;18.026;2023-07-31T10:15:31;100508.83;;;20.65;59.09
76728;BME280;65652;53.132;18.026;2023-07-31T10:17:58;100500.11;;;20.56;59.52
76728;BME280;65652;53.132;18.026;2023-07-31T10:20:26;100500.16;;;20.53;59.72
76728;BME280;65652;53.132;18.026;2023-07-31T10:22:54;100495.73;;;20.53;60.45
76728;BME280;65652;53.132;18.026;2023-07-31T10:25:21;100494.71;;;20.52;60.63
76728;BME280;65652;53.132;18.026;2023-07-31T10:27:49;100493.16;;;20.54;60.50
76728;BME280;65652;53.132;18.026;2023-07-31T10:30:18;100488.11;;;20.55;60.33
76728;BME280;65652;53.132;18.026;2023-07-31T10:32:45;100482.44;;;20.56;60.26
76728;BME280;65652;53.132;18.026;2023-07-31T10:35:12;100480.46;;;20.59;60.51
76728;BME280;65652;53.132;18.026;2023-07-31T10:37:40;100476.34;;;20.65;60.81
76728;BME280;65652;53.132;18.026;2023-07-31T10:40:12;100468.41;;;20.72;60.63
76728;BME280;65652;53.132;18.026;2023-07-31T10:42:51;100462.80;;;20.82;61.07
76728;BME280;65652;53.132;18.026;2023-07-31T10:47:58;100445.80;;;21.09;60.68
76728;BME280;65652;53.132;18.026;2023-07-31T10:50:26;100443.15;;;21.18;60.34
76728;BME280;65652;53.132;18.026;2023-07-31T10:52:57;100440.48;;;21.37;60.25
76728;BME280;65652;53.132;18.026;2023-07-31T10:55:38;100440.87;;;21.59;59.09
76728;BME280;65652;53.132;18.026;2023-07-31T10:58:12;100434.83;;;21.67;58.59
76728;BME280;65652;53.132;18.026;2023-07-31T11:00:43;100435.95;;;21.72;58.44
76728;BME280;65652;53.132;18.026;2023-07-31T11:03:15;100432.33;;;21.83;57.31
76728;BME280;65652;53.132;18.026;2023-07-31T11:06:01;100432.10;;;21.92;56.36
76728;BME280;65652;53.132;18.026;2023-07-31T11:08:30;100429.23;;;21.91;55.80
76728;BME280;65652;53.132;18.026;2023-07-31T11:13:30;100423.30;;;21.73;54.59
76728;BME280;65652;53.132;18.026;2023-07-31T11:15:56;100424.54;;;21.58;54.49
76728;BME280;65652;53.132;18.026;2023-07-31T11:18:22;100425.61;;;21.43;54.96
76728;BME280;65652;53.132;18.026;2023-07-31T11:20:49;100433.15;;;21.32;54.85
76728;BME280;65652;53.132;18.026;2023-07-31T11:23:17;100433.07;;;21.18;54.90
76728;BME280;65652;53.132;18.026;2023-07-31T11:25:43;100432.73;;;21.06;55.19
76728;BME280;65652;53.132;18.026;2023-07-31T11:28:12;100438.82;;;20.94;55.49
76728;BME280;65652;53.132;18.026;2023-07-31T11:30:42;100440.52;;;20.84;55.93
76728;BME280;65652;53.132;18.026;2023-07-31T11:33:13;100445.67;;;20.74;56.36
76728;BME280;65652;53.132;18.026;2023-07-31T11:35:47;100449.25;;;20.64;56.93
76728;BME280;65652;53.132;18.026;2023-07-31T11:38:25;100463.66;;;20.39;59.46
76728;BME280;65652;53.132;18.026;2023-07-31T11:40:59;100466.55;;;20.05;60.60
76728;BME280;65652;53.132;18.026;2023-07-31T11:43:25;100454.88;;;19.85;61.38
76728;BME280;65652;53.132;18.026;2023-07-31T11:45:55;100454.41;;;19.77;61.96
76728;BME280;65652;53.132;18.026;2023-07-31T11:48:26;100454.93;;;19.73;62.83
76728;BME280;65652;53.132;18.026;2023-07-31T11:51:01;100454.02;;;19.79;62.72
76728;BME280;65652;53.132;18.026;2023-07-31T11:53:47;100453.23;;;19.84;63.07
76728;BME280;65652;53.132;18.026;2023-07-31T11:56:18;100449.11;;;19.88;63.29
76728;BME280;65652;53.132;18.026;2023-07-31T11:58:56;100444.23;;;19.91;63.41
76728;BME280;65652;53.132;18.026;2023-07-31T12:01:23;100447.89;;;19.99;63.26
76728;BME280;65652;53.132;18.026;2023-07-31T12:03:50;100449.11;;;20.04;63.01
76728;BME280;65652;53.132;18.026;2023-07-31T12:06:18;100446.70;;;20.12;62.73
76728;BME280;65652;53.132;18.026;2023-07-31T12:08:47;100446.42;;;20.22;62.63
76728;BME280;65652;53.132;18.026;2023-07-31T12:11:13;100442.94;;;20.31;62.36
76728;BME280;65652;53.132;18.026;2023-07-31T12:13:41;100444.64;;;20.46;62.22
76728;BME280;65652;53.132;18.026;2023-07-31T12:16:07;100441.77;;;20.69;61.68
76728;BME280;65652;53.132;18.026;2023-07-31T12:18:35;100438.44;;;20.96;61.14
76728;BME280;65652;53.132;18.026;2023-07-31T12:21:04;100435.52;;;21.14;60.36
76728;BME280;65652;53.132;18.026;2023-07-31T12:23:31;100431.63;;;21.17;59.62
76728;BME280;65652;53.132;18.026;2023-07-31T12:26:12;100427.27;;;21.11;59.78
76728;BME280;65652;53.132;18.026;2023-07-31T12:28:41;100419.85;;;21.00;59.86
76728;BME280;65652;53.132;18.026;2023-07-31T12:31:21;100418.71;;;20.94;60.19
76728;BME280;65652;53.132;18.026;2023-07-31T12:33:49;100415.58;;;20.92;59.84
76728;BME280;65652;53.132;18.026;2023-07-31T12:36:20;100416.44;;;20.83;59.63
76728;BME280;65652;53.132;18.026;2023-07-31T12:38:47;100405.77;;;20.71;59.96
76728;BME280;65652;53.132;18.026;2023-07-31T12:41:14;100407.62;;;20.62;59.92
76728;BME280;65652;53.132;18.026;2023-07-31T12:43:41;100403.34;;;20.57;60.25
76728;BME280;65652;53.132;18.026;2023-07-31T12:46:08;100401.06;;;20.54;60.52
76728;BME280;65652;53.132;18.026;2023-07-31T12:48:36;100402.13;;;20.52;60.61
76728;BME280;65652;53.132;18.026;2023-07-31T12:51:03;100404.32;;;20.48;60.67
76728;BME280;65652;53.132;18.026;2023-07-31T12:53:29;100403.23;;;20.42;60.85
76728;BME280;65652;53.132;18.026;2023-07-31T12:55:56;100402.09;;;20.34;61.11